sensor_id;sensor_type;location;lat;lon;timestamp;pressure;altitude;pressure_sealevel;temperature;humidity
1832;BME280;1680;48.106;11.708;2023-11-21T00:00:13;95050.25;;;8.25;100.00
1832;BME280;1680;48.106;11.708;2023-11-21T00:02:41;95024.84;;;7.96;100.00
1832;BME280;1680;48.106;11.708;2023-11-21T00:05:10;95051.41;;;8.29;100.00
1832;BME280;1680;48.106;11.708;2023-11-21T00:07:39;95034.78;;;8.05;100.00
1832;BME280;1680;48.106;11.708;2023-11-21T00:10:08;95049.88;;;8.21;100.00
1832;BME280;1680;48.106;11.708;2023-11-21T00:12:36;95033.91;;;8.11;100.00
1832;BME280;1680;48.106;11.708;2023-11-21T00:15:04;95044.66;;;8.21;100.00
1832;BME280;1680;48.106;11.708;2023-11-21T00:17:34;95031.94;;;8.43;100.00
1832;BME280;1680;48.106;11.708;2023-11-21T00:20:01;95032.22;;;8.53;100.00
1832;BME280;1680;48.106;11.708;2023-11-21T00:22:33;95040.94;;;8.47;100.00
1832;BME280;1680;48.106;11.708;2023-11-21T00:25:00;95037.06;;;8.20;100.00
1832;BME280;1680;48.106;11.708;2023-11-21T00:27:29;95034.22;;;8.21;100.00
1832;BME280;1680;48.106;11.708;2023-11-21T00:29:55;95021.53;;;8.07;100.00
1832;BME280;1680;48.106;11.708;2023-11-21T00:32:22;95013.69;;;8.07;100.00
1832;BME280;1680;48.106;11.708;2023-11-21T00:34:49;95007.81;;;8.11;100.00
1832;BME280;1680;48.106;11.708;2023-11-21T00:37:16;95011.00;;;8.13;100.00
1832;BME280;1680;48.106;11.708;2023-11-21T00:39:45;95007.66;;;8.24;100.00
1832;BME280;1680;48.106;11.708;2023-11-21T00:42:12;95008.66;;;8.05;100.00
1832;BME280;1680;48.106;11.708;2023-11-21T00:44:39;95007.97;;;7.98;100.00
1832;BME280;1680;48.106;11.708;2023-11-21T00:47:06;94998.81;;;7.89;100.00
1832;BME280;1680;48.106;11.708;2023-11-21T00:49:34;94995.19;;;7.90;100.00
1832;BME280;1680;48.106;11.708;2023-11-21T00:52:01;95003.84;;;7.91;100.00
1832;BME280;1680;48.106;11.708;2023-11-21T00:54:28;94997.22;;;7.88;100.00
1832;BME280;1680;48.106;11.708;2023-11-21T00:56:57;94996.09;;;7.84;100.00
1832;BME280;1680;48.106;11.708;2023-11-21T00:59:24;94998.47;;;7.86;100.00
1832;BME280;1680;48.106;11.708;2023-11-21T01:01:51;94987.59;;;7.89;100.00
1832;BME280;1680;48.106;11.708;2023-11-21T01:04:19;95003.91;;;7.84;100.00
1832;BME280;1680;48.106;11.708;2023-11-21T01:06:46;94998.91;;;7.83;100.00
1832;BME280;1680;48.106;11.708;2023-11-21T01:09:14;95003.75;;;7.79;100.00
1832;BME280;1680;48.106;11.708;2023-11-21T01:11:43;94996.72;;;7.80;100.00
1832;BME280;1680;48.106;11.708;2023-11-21T01:14:13;94992.75;;;7.77;100.00
1832;BME280;1680;48.106;11.708;2023-11-21T01:16:40;94989.97;;;7.72;100.00
1832;BME280;1680;48.106;11.708;2023-11-21T01:19:07;94996.66;;;7.68;100.00
1832;BME280;1680;48.106;11.708;2023-11-21T01:21:34;94989.84;;;7.68;100.00
1832;BME280;1680;48.106;11.708;2023-11-21T01:24:01;94987.66;;;7.65;100.00
1832;BME280;1680;48.106;11.708;2023-11-21T01:26:29;94997.53;;;7.63;100.00
1832;BME280;1680;48.106;11.708;2023-11-21T01:28:56;94979.56;;;7.55;100.00
1832;BME280;1680;48.106;11.708;2023-11-21T01:31:24;94990.50;;;7.63;100.00
1832;BME280;1680;48.106;11.708;2023-11-21T01:33:54;94995.22;;;7.55;100.00
1832;BME280;1680;48.106;11.708;2023-11-21T01:36:21;95002.16;;;7.61;100.00
1832;BME280;1680;48.106;11.708;2023-11-21T01:38:49;94990.34;;;7.58;100.00
1832;BME280;1680;48.106;11.708;2023-11-21T01:41:16;94999.41;;;7.56;100.00
1832;BME280;1680;48.106;11.708;2023-11-21T01:43:43;95000.78;;;7.58;100.00
1832;BME280;1680;48.106;11.708;2023-11-21T01:46:10;94999.13;;;7.64;100.00
1832;BME280;1680;48.106;11.708;2023-11-21T01:48:39;94997.16;;;7.59;100.00
1832;BME280;1680;48.106;11.708;2023-11-21T01:51:06;94982.16;;;7.55;100.00
1832;BME280;1680;48.106;11.708;2023-11-21T01:53:33;94990.13;;;7.60;100.00
1832;BME280;1680;48.106;11.708;2023-11-21T01:56:02;94987.94;;;7.57;100.00
1832;BME280;1680;48.106;11.708;2023-11-21T01:58:30;94984.78;;;7.55;100.00
1832;BME280;1680;48.106;11.708;2023-11-21T02:00:58;94984.38;;;7.51;100.00
1832;BME280;1680;48.106;11.708;2023-11-21T02:03:26;94986.06;;;7.46;100.00
1832;BME280;1680;48.106;11.708;2023-11-21T02:05:54;94987.50;;;7.42;100.00
1832;BME280;1680;48.106;11.708;2023-11-21T02:08:21;94983.75;;;7.38;100.00
1832;BME280;1680;48.106;11.708;2023-11-21T02:10:48;94955.31;;;7.30;100.00
1832;BME280;1680;48.106;11.708;2023-11-21T02:13:15;94985.84;;;7.47;100.00
1832;BME280;1680;48.106;11.708;2023-11-21T02:15:43;94991.16;;;7.41;100.00
1832;BME280;1680;48.106;11.708;2023-11-21T02:18:10;94998.50;;;7.44;100.00
1832;BME280;1680;48.106;11.708;2023-11-21T02:20:37;94995.63;;;7.52;100.00
1832;BME280;1680;48.106;11.708;2023-11-21T02:23:09;94997.22;;;7.53;100.00
1832;BME280;1680;48.106;11.708;2023-11-21T02:25:38;94991.19;;;7.52;100.00
1832;BME280;1680;48.106;11.708;2023-11-21T02:28:05;94989.41;;;7.53;100.00
1832;BME280;1680;48.106;11.708;2023-11-21T02:30:32;94993.16;;;7.57;100.00
1832;BME280;1680;48.106;11.708;2023-11-21T02:33:00;94993.16;;;7.57;100.00
1832;BME280;1680;48.106;11.708;2023-11-21T02:35:27;94990.00;;;7.55;100.00
1832;BME280;1680;48.106;11.708;2023-11-21T02:37:56;94981.59;;;7.70;100.00
1832;BME280;1680;48.106;11.708;2023-11-21T02:40:24;94996.44;;;7.88;100.00
1832;BME280;1680;48.106;11.708;2023-11-21T02:42:52;95000.91;;;7.81;100.00
1832;BME280;1680;48.106;11.708;2023-11-21T02:45:19;95001.50;;;7.83;100.00
1832;BME280;1680;48.106;11.708;2023-11-21T02:47:47;94998.53;;;7.79;100.00
1832;BME280;1680;48.106;11.708;2023-11-21T02:50:15;95005.00;;;7.77;100.00
1832;BME280;1680;48.106;11.708;2023-11-21T02:52:44;95001.50;;;7.83;100.00
1832;BME280;1680;48.106;11.708;2023-11-21T02:55:11;95006.72;;;8.01;100.00
1832;BME280;1680;48.106;11.708;2023-11-21T02:57:40;95009.56;;;7.99;100.00
1832;BME280;1680;48.106;11.708;2023-11-21T03:00:08;95003.59;;;7.92;100.00
1832;BME280;1680;48.106;11.708;2023-11-21T03:02:38;94958.00;;;7.41;100.00
1832;BME280;1680;48.106;11.708;2023-11-21T03:05:06;94998.97;;;7.76;100.00
1832;BME280;1680;48.106;11.708;2023-11-21T03:07:34;94976.50;;;7.58;100.00
1832;BME280;1680;48.106;11.708;2023-11-21T03:10:01;94980.41;;;7.67;100.00
1832;BME280;1680;48.106;11.708;2023-11-21T03:12:29;94982.72;;;7.57;100.00
1832;BME280;1680;48.106;11.708;2023-11-21T03:14:57;94979.97;;;7.52;100.00
1832;BME280;1680;48.106;11.708;2023-11-21T03:17:25;94980.41;;;7.49;100.00
1832;BME280;1680;48.106;11.708;2023-11-21T03:19:52;94974.34;;;7.55;100.00
1832;BME280;1680;48.106;11.708;2023-11-21T03:22:20;94968.75;;;7.51;100.00
1832;BME280;1680;48.106;11.708;2023-11-21T03:24:47;94970.41;;;7.46;100.00
1832;BME280;1680;48.106;11.708;2023-11-21T03:27:14;94967.78;;;7.46;100.00
1832;BME280;1680;48.106;11.708;2023-11-21T03:29:41;94967.38;;;7.49;100.00
1832;BME280;1680;48.106;11.708;2023-11-21T03:32:10;94964.00;;;7.42;100.00
1832;BME280;1680;48.106;11.708;2023-11-21T03:34:53;94967.22;;;7.44;100.00
1832;BME280;1680;48.106;11.708;2023-11-21T03:37:21;94970.81;;;7.43;100.00
1832;BME280;1680;48.106;11.708;2023-11-21T03:39:48;94974.44;;;7.42;100.00
1832;BME280;1680;48.106;11.708;2023-11-21T03:42:15;94972.00;;;7.47;100.00
1832;BME280;1680;48.106;11.708;2023-11-21T03:44:43;94968.75;;;7.51;100.00
1832;BME280;1680;48.106;11.708;2023-11-21T03:47:11;94966.34;;;7.50;100.00
1832;BME280;1680;48.106;11.708;2023-11-21T03:49:38;94965.94;;;7.53;100.00
1832;BME280;1680;48.106;11.708;2023-11-21T03:52:05;94976.44;;;7.46;100.00
1832;BME280;1680;48.106;11.708;2023-11-21T03:54:34;94973.94;;;7.51;100.00
1832;BME280;1680;48.106;11.708;2023-11-21T03:57:01;94983.53;;;7.57;100.00
1832;BME280;1680;48.106;11.708;2023-11-21T03:59:28;94971.69;;;7.72;100.00
1832;BME280;1680;48.106;11.708;2023-11-21T04:01:56;94975.34;;;7.71;100.00
1832;BME280;1680;48.106;11.708;2023-11-21T04:04:24;94974.28;;;7.79;100.00
1832;BME280;1680;48.106;11.708;2023-11-21T04:06:51;94967.97;;;7.68;100.00
1832;BME280;1680;48.106;11.708;2023-11-21T04:09:19;94972.75;;;7.71;100.00
1832;BME280;1680;48.106;11.708;2023-11-21T04:11:49;94975.28;;;7.78;100.00
1832;BME280;1680;48.106;11.708;2023-11-21T04:14:16;94954.03;;;7.57;100.00
1832;BME280;1680;48.106;11.708;2023-11-21T04:16:43;94955.50;;;7.53;100.00
1832;BME280;1680;48.106;11.708;2023-11-21T04:19:10;94956.06;;;7.55;100.00
1832;BME280;1680;48.106;11.708;2023-11-21T04:21:41;94967.94;;;7.51;100.00
1832;BME280;1680;48.106;11.708;2023-11-21T04:24:08;94966.63;;;7.42;100.00
1832;BME280;1680;48.106;11.708;2023-11-21T04:26:35;94973.91;;;7.40;100.00
1832;BME280;1680;48.106;11.708;2023-11-21T04:29:03;94966.84;;;7.40;100.00
1832;BME280;1680;48.106;11.708;2023-11-21T04:31:30;94979.66;;;7.42;100.00
1832;BME280;1680;48.106;11.708;2023-11-21T04:33:58;94983.69;;;7.44;100.00
1832;BME280;1680;48.106;11.708;2023-11-21T04:36:25;94977.22;;;7.47;100.00
1832;BME280;1680;48.106;11.708;2023-11-21T04:38:53;94983.75;;;7.56;100.00
1832;BME280;1680;48.106;11.708;2023-11-21T04:41:20;94983.69;;;7.62;100.00
1832;BME280;1680;48.106;11.708;2023-11-21T04:43:48;94991.44;;;7.68;100.00
1832;BME280;1680;48.106;11.708;2023-11-21T04:46:15;94982.38;;;7.71;100.00
1832;BME280;1680;48.106;11.708;2023-11-21T04:48:42;94981.72;;;7.75;100.00
1832;BME280;1680;48.106;11.708;2023-11-21T04:51:09;94950.28;;;7.53;100.00
1832;BME280;1680;48.106;11.708;2023-11-21T04:53:38;94980.03;;;7.81;100.00
1832;BME280;1680;48.106;11.708;2023-11-21T04:56:07;94967.44;;;7.78;100.00
1832;BME280;1680;48.106;11.708;2023-11-21T04:58:34;94969.25;;;7.77;100.00
1832;BME280;1680;48.106;11.708;2023-11-21T05:01:01;94976.06;;;7.78;100.00
1832;BME280;1680;48.106;11.708;2023-11-21T05:03:29;94972.00;;;7.82;100.00
1832;BME280;1680;48.106;11.708;2023-11-21T05:05:56;94977.31;;;7.76;100.00
1832;BME280;1680;48.106;11.708;2023-11-21T05:08:23;94977.66;;;7.79;100.00
1832;BME280;1680;48.106;11.708;2023-11-21T05:10:51;94979.41;;;7.68;100.00
1832;BME280;1680;48.106;11.708;2023-11-21T05:13:20;94981.44;;;7.66;100.00
1832;BME280;1680;48.106;11.708;2023-11-21T05:15:47;94976.13;;;7.72;100.00
1832;BME280;1680;48.106;11.708;2023-11-21T05:18:14;94981.13;;;7.73;100.00
1832;BME280;1680;48.106;11.708;2023-11-21T05:20:41;94973.16;;;7.51;100.00
1832;BME280;1680;48.106;11.708;2023-11-21T05:23:08;94982.72;;;7.57;100.00
1832;BME280;1680;48.106;11.708;2023-11-21T05:25:35;94987.81;;;7.52;100.00
1832;BME280;1680;48.106;11.708;2023-11-21T05:28:02;94989.84;;;7.68;100.00
1832;BME280;1680;48.106;11.708;2023-11-21T05:30:31;94994.19;;;7.73;100.00
1832;BME280;1680;48.106;11.708;2023-11-21T05:32:58;94985.97;;;7.52;100.00
1832;BME280;1680;48.106;11.708;2023-11-21T05:35:25;94995.63;;;7.52;100.00
1832;BME280;1680;48.106;11.708;2023-11-21T05:37:52;94993.63;;;7.54;100.00
1832;BME280;1680;48.106;11.708;2023-11-21T05:40:19;94992.72;;;7.60;100.00
1832;BME280;1680;48.106;11.708;2023-11-21T05:42:47;95004.63;;;7.73;100.00
1832;BME280;1680;48.106;11.708;2023-11-21T05:45:16;94998.19;;;7.76;100.00
1832;BME280;1680;48.106;11.708;2023-11-21T05:47:46;94984.91;;;7.60;100.00
1832;BME280;1680;48.106;11.708;2023-11-21T05:50:14;94993.47;;;7.49;100.00
1832;BME280;1680;48.106;11.708;2023-11-21T05:52:42;94994.91;;;7.63;100.00
1832;BME280;1680;48.106;11.708;2023-11-21T05:55:09;94996.34;;;7.59;100.00
1832;BME280;1680;48.106;11.708;2023-11-21T05:57:37;95004.84;;;7.54;100.00
1832;BME280;1680;48.106;11.708;2023-11-21T06:00:06;95005.78;;;7.60;100.00
1832;BME280;1680;48.106;11.708;2023-11-21T06:02:37;95009.56;;;7.64;100.00
1832;BME280;1680;48.106;11.708;2023-11-21T06:05:07;95010.50;;;7.69;100.00
1832;BME280;1680;48.106;11.708;2023-11-21T06:07:35;95014.28;;;7.73;100.00
1832;BME280;1680;48.106;11.708;2023-11-21T06:10:02;95008.69;;;7.69;100.00
1832;BME280;1680;48.106;11.708;2023-11-21T06:12:32;95005.78;;;7.60;100.00
1832;BME280;1680;48.106;11.708;2023-11-21T06:15:01;95010.72;;;7.68;100.00
1832;BME280;1680;48.106;11.708;2023-11-21T06:17:30;95011.59;;;7.79;100.00
1832;BME280;1680;48.106;11.708;2023-11-21T06:19:58;95014.53;;;7.65;100.00
1832;BME280;1680;48.106;11.708;2023-11-21T06:22:27;95024.13;;;7.89;100.00
1832;BME280;1680;48.106;11.708;2023-11-21T06:24:55;95020.72;;;7.70;100.00
1832;BME280;1680;48.106;11.708;2023-11-21T06:27:23;95017.22;;;7.59;100.00
1832;BME280;1680;48.106;11.708;2023-11-21T06:29:50;95032.44;;;7.62;100.00
1832;BME280;1680;48.106;11.708;2023-11-21T06:32:17;95035.06;;;7.79;100.00
1832;BME280;1680;48.106;11.708;2023-11-21T06:34:45;95001.88;;;7.51;100.00
1832;BME280;1680;48.106;11.708;2023-11-21T06:37:13;95039.84;;;7.65;100.00
1832;BME280;1680;48.106;11.708;2023-11-21T06:39:41;95045.34;;;7.57;100.00
1832;BME280;1680;48.106;11.708;2023-11-21T06:42:08;95035.94;;;7.56;100.00
1832;BME280;1680;48.106;11.708;2023-11-21T06:44:36;95036.38;;;7.53;100.00
1832;BME280;1680;48.106;11.708;2023-11-21T06:47:03;95054.63;;;7.53;100.00
1832;BME280;1680;48.106;11.708;2023-11-21T06:49:31;95055.28;;;7.66;100.00
1832;BME280;1680;48.106;11.708;2023-11-21T06:51:58;95049.69;;;7.63;100.00
1832;BME280;1680;48.106;11.708;2023-11-21T06:54:28;95062.91;;;7.68;100.00
1832;BME280;1680;48.106;11.708;2023-11-21T06:56:56;95056.38;;;7.76;100.00
1832;BME280;1680;48.106;11.708;2023-11-21T06:59:23;95051.66;;;7.67;100.00
1832;BME280;1680;48.106;11.708;2023-11-21T07:01:51;95053.31;;;7.62;100.00
1832;BME280;1680;48.106;11.708;2023-11-21T07:04:18;95054.56;;;7.59;100.00
1832;BME280;1680;48.106;11.708;2023-11-21T07:06:45;95062.59;;;7.58;100.00
1832;BME280;1680;48.106;11.708;2023-11-21T07:09:12;95060.38;;;7.61;100.00
1832;BME280;1680;48.106;11.708;2023-11-21T07:11:41;95035.47;;;7.41;100.00
1832;BME280;1680;48.106;11.708;2023-11-21T07:14:09;95072.59;;;7.61;100.00
1832;BME280;1680;48.106;11.708;2023-11-21T07:16:37;95077.75;;;7.67;100.00
1832;BME280;1680;48.106;11.708;2023-11-21T07:19:04;95071.34;;;7.69;100.00
1832;BME280;1680;48.106;11.708;2023-11-21T07:21:32;95056.03;;;7.73;100.00
1832;BME280;1680;48.106;11.708;2023-11-21T07:23:59;95078.94;;;7.71;100.00
1832;BME280;1680;48.106;11.708;2023-11-21T07:26:27;95062.78;;;7.80;100.00
1832;BME280;1680;48.106;11.708;2023-11-21T07:28:54;95082.22;;;7.84;100.00
1832;BME280;1680;48.106;11.708;2023-11-21T07:31:23;95041.00;;;7.51;100.00
1832;BME280;1680;48.106;11.708;2023-11-21T07:33:51;95077.69;;;7.73;100.00
1832;BME280;1680;48.106;11.708;2023-11-21T07:36:19;95076.91;;;7.73;100.00
1832;BME280;1680;48.106;11.708;2023-11-21T07:38:47;95080.69;;;7.77;100.00
1832;BME280;1680;48.106;11.708;2023-11-21T07:41:14;95095.09;;;7.79;100.00
1832;BME280;1680;48.106;11.708;2023-11-21T07:43:41;95082.41;;;7.83;100.00
1832;BME280;1680;48.106;11.708;2023-11-21T07:46:09;95084.72;;;7.73;100.00
1832;BME280;1680;48.106;11.708;2023-11-21T07:48:39;95088.91;;;7.98;100.00
1832;BME280;1680;48.106;11.708;2023-11-21T07:51:07;95093.66;;;7.83;100.00
1832;BME280;1680;48.106;11.708;2023-11-21T07:53:35;95093.25;;;7.86;100.00
1832;BME280;1680;48.106;11.708;2023-11-21T07:56:03;95081.03;;;7.80;100.00
1832;BME280;1680;48.106;11.708;2023-11-21T07:58:30;95096.88;;;7.85;100.00
1832;BME280;1680;48.106;11.708;2023-11-21T08:00:58;95088.59;;;7.88;100.00
1832;BME280;1680;48.106;11.708;2023-11-21T08:03:26;95090.75;;;7.91;100.00
1832;BME280;1680;48.106;11.708;2023-11-21T08:05:56;95082.88;;;7.98;100.00
1832;BME280;1680;48.106;11.708;2023-11-21T08:08:23;95076.59;;;8.23;100.00
1832;BME280;1680;48.106;11.708;2023-11-21T08:10:50;95085.19;;;8.42;100.00
1832;BME280;1680;48.106;11.708;2023-11-21T08:13:21;95082.31;;;8.50;100.00
1832;BME280;1680;48.106;11.708;2023-11-21T08:15:49;95081.72;;;8.48;100.00
1832;BME280;1680;48.106;11.708;2023-11-21T08:18:16;95091.00;;;8.44;100.00
1832;BME280;1680;48.106;11.708;2023-11-21T08:20:43;95089.72;;;8.64;100.00
1832;BME280;1680;48.106;11.708;2023-11-21T08:23:14;95082.44;;;9.36;100.00
1832;BME280;1680;48.106;11.708;2023-11-21T08:25:43;95091.38;;;9.06;100.00
1832;BME280;1680;48.106;11.708;2023-11-21T08:28:11;95070.13;;;8.73;100.00
1832;BME280;1680;48.106;11.708;2023-11-21T08:30:39;95082.53;;;8.77;100.00
1832;BME280;1680;48.106;11.708;2023-11-21T08:33:07;95091.84;;;8.56;100.00
1832;BME280;1680;48.106;11.708;2023-11-21T08:35:35;95089.69;;;9.23;100.00
1832;BME280;1680;48.106;11.708;2023-11-21T08:38:02;95057.78;;;9.78;100.00
1832;BME280;1680;48.106;11.708;2023-11-21T08:40:31;95079.25;;;11.21;100.00
1832;BME280;1680;48.106;11.708;2023-11-21T08:43:00;95081.34;;;11.35;100.00
1832;BME280;1680;48.106;11.708;2023-11-21T08:45:30;95069.59;;;11.54;100.00
1832;BME280;1680;48.106;11.708;2023-11-21T08:47:59;95081.50;;;11.45;100.00
1832;BME280;1680;48.106;11.708;2023-11-21T08:50:26;95054.13;;;11.25;100.00
1832;BME280;1680;48.106;11.708;2023-11-21T08:52:54;95079.66;;;10.85;100.00
1832;BME280;1680;48.106;11.708;2023-11-21T08:55:21;95087.69;;;10.28;100.00
1832;BME280;1680;48.106;11.708;2023-11-21T08:57:49;95087.84;;;9.75;100.00
1832;BME280;1680;48.106;11.708;2023-11-21T09:00:17;95092.13;;;9.36;100.00
1832;BME280;1680;48.106;11.708;2023-11-21T09:02:44;95091.81;;;9.03;100.00
1832;BME280;1680;48.106;11.708;2023-11-21T09:05:13;95091.16;;;9.07;100.00
1832;BME280;1680;48.106;11.708;2023-11-21T09:07:41;95106.25;;;9.35;100.00
1832;BME280;1680;48.106;11.708;2023-11-21T09:10:09;95106.50;;;9.04;100.00
1832;BME280;1680;48.106;11.708;2023-11-21T09:12:37;95104.50;;;9.29;100.00
1832;BME280;1680;48.106;11.708;2023-11-21T09:15:06;95104.84;;;9.32;100.00
1832;BME280;1680;48.106;11.708;2023-11-21T09:17:35;95118.47;;;9.23;100.00
1832;BME280;1680;48.106;11.708;2023-11-21T09:20:02;95095.19;;;8.92;100.00
1832;BME280;1680;48.106;11.708;2023-11-21T09:22:30;95122.09;;;9.22;100.00
1832;BME280;1680;48.106;11.708;2023-11-21T09:24:58;95123.53;;;9.36;100.00
1832;BME280;1680;48.106;11.708;2023-11-21T09:27:25;95130.22;;;9.32;100.00
1832;BME280;1680;48.106;11.708;2023-11-21T09:29:52;95131.25;;;9.31;100.00
1832;BME280;1680;48.106;11.708;2023-11-21T09:32:21;95131.25;;;9.31;100.00
1832;BME280;1680;48.106;11.708;2023-11-21T09:34:49;95116.44;;;9.25;100.00
1832;BME280;1680;48.106;11.708;2023-11-21T09:37:16;95133.28;;;9.29;100.00
1832;BME280;1680;48.106;11.708;2023-11-21T09:39:44;95136.53;;;9.42;100.00
1832;BME280;1680;48.106;11.708;2023-11-21T09:42:15;95137.16;;;9.38;100.00
1832;BME280;1680;48.106;11.708;2023-11-21T09:44:50;95137.03;;;9.21;100.00
1832;BME280;1680;48.106;11.708;2023-11-21T09:47:22;95135.22;;;9.33;100.00
1832;BME280;1680;48.106;11.708;2023-11-21T09:49:49;95136.81;;;9.34;100.00
1832;BME280;1680;48.106;11.708;2023-11-21T09:52:22;95138.66;;;9.45;100.00
1832;BME280;1680;48.106;11.708;2023-11-21T09:54:52;95132.09;;;9.54;100.00
1832;BME280;1680;48.106;11.708;2023-11-21T09:57:19;95140.06;;;9.70;100.00
1832;BME280;1680;48.106;11.708;2023-11-21T09:59:51;95121.97;;;9.58;100.00
1832;BME280;1680;48.106;11.708;2023-11-21T10:02:22;95129.16;;;9.85;100.00
1832;BME280;1680;48.106;11.708;2023-11-21T10:04:53;95129.16;;;9.73;100.00
1832;BME280;1680;48.106;11.708;2023-11-21T10:07:20;95124.03;;;9.78;100.00
1832;BME280;1680;48.106;11.708;2023-11-21T10:09:48;95122.53;;;9.82;100.00
1832;BME280;1680;48.106;11.708;2023-11-21T10:12:18;95124.03;;;9.78;100.00
1832;BME280;1680;48.106;11.708;2023-11-21T10:14:48;95137.00;;;9.96;100.00
1832;BME280;1680;48.106;11.708;2023-11-21T10:17:18;95128.28;;;10.02;100.00
1832;BME280;1680;48.106;11.708;2023-11-21T10:19:47;95131.94;;;10.13;100.00
1832;BME280;1680;48.106;11.708;2023-11-21T10:22:15;95134.09;;;10.04;100.00
1832;BME280;1680;48.106;11.708;2023-11-21T10:24:42;95135.56;;;10.23;100.00
1832;BME280;1680;48.106;11.708;2023-11-21T10:27:09;95123.13;;;10.30;100.00
1832;BME280;1680;48.106;11.708;2023-11-21T10:29:39;95128.63;;;10.17;100.00
1832;BME280;1680;48.106;11.708;2023-11-21T10:32:07;95126.56;;;10.19;100.00
1832;BME280;1680;48.106;11.708;2023-11-21T10:34:35;95122.34;;;10.07;100.00
1832;BME280;1680;48.106;11.708;2023-11-21T10:37:12;95128.34;;;9.84;100.00
1832;BME280;1680;48.106;11.708;2023-11-21T10:39:40;95120.50;;;9.84;100.00
1832;BME280;1680;48.106;11.708;2023-11-21T10:42:09;95138.50;;;9.81;100.00
1832;BME280;1680;48.106;11.708;2023-11-21T10:44:36;95126.09;;;10.34;100.00
1832;BME280;1680;48.106;11.708;2023-11-21T10:47:03;95132.59;;;10.31;100.00
1832;BME280;1680;48.106;11.708;2023-11-21T10:49:30;95135.44;;;10.18;100.00
1832;BME280;1680;48.106;11.708;2023-11-21T10:51:57;95129.50;;;10.34;100.00
1832;BME280;1680;48.106;11.708;2023-11-21T10:54:26;95110.81;;;9.96;100.00
1832;BME280;1680;48.106;11.708;2023-11-21T10:56:56;95118.13;;;10.29;100.00
1832;BME280;1680;48.106;11.708;2023-11-21T10:59:28;95117.31;;;10.40;100.00
1832;BME280;1680;48.106;11.708;2023-11-21T11:01:57;95122.41;;;10.46;100.00
1832;BME280;1680;48.106;11.708;2023-11-21T11:04:27;95121.19;;;10.49;100.00
1832;BME280;1680;48.106;11.708;2023-11-21T11:06:56;95120.09;;;10.61;100.00
1832;BME280;1680;48.106;11.708;2023-11-21T11:09:26;95104.69;;;10.25;100.00
1832;BME280;1680;48.106;11.708;2023-11-21T11:11:54;95116.97;;;10.25;100.00
1832;BME280;1680;48.106;11.708;2023-11-21T11:14:21;95125.66;;;10.25;100.00
1832;BME280;1680;48.106;11.708;2023-11-21T11:16:53;95121.19;;;10.26;100.00
1832;BME280;1680;48.106;11.708;2023-11-21T11:19:21;95113.72;;;10.18;100.00
1832;BME280;1680;48.106;11.708;2023-11-21T11:22:07;95122.47;;;10.00;100.00
1832;BME280;1680;48.106;11.708;2023-11-21T11:24:53;95128.13;;;9.97;100.00
1832;BME280;1680;48.106;11.708;2023-11-21T11:27:34;95120.25;;;9.97;100.00
1832;BME280;1680;48.106;11.708;2023-11-21T11:30:13;95127.34;;;9.97;100.00
1832;BME280;1680;48.106;11.708;2023-11-21T11:32:52;95109.69;;;9.92;100.00
1832;BME280;1680;48.106;11.708;2023-11-21T11:35:26;95119.25;;;9.98;100.00
1832;BME280;1680;48.106;11.708;2023-11-21T11:37:58;95119.53;;;10.08;100.00
1832;BME280;1680;48.106;11.708;2023-11-21T11:40:38;95110.94;;;9.90;100.00
1832;BME280;1680;48.106;11.708;2023-11-21T11:43:07;95114.00;;;9.98;100.00
1832;BME280;1680;48.106;11.708;2023-11-21T11:45:35;95110.59;;;9.86;100.00
1832;BME280;1680;48.106;11.708;2023-11-21T11:48:06;95098.28;;;9.98;100.00
1832;BME280;1680;48.106;11.708;2023-11-21T11:50:33;95112.41;;;9.97;100.00
1832;BME280;1680;48.106;11.708;2023-11-21T11:53:13;95111.38;;;9.98;100.00
1832;BME280;1680;48.106;11.708;2023-11-21T11:55:41;95109.59;;;9.99;100.00
1832;BME280;1680;48.106;11.708;2023-11-21T11:58:08;95107.78;;;10.11;100.00
1832;BME280;1680;48.106;11.708;2023-11-21T12:00:37;95109.94;;;10.02;100.00
1832;BME280;1680;48.106;11.708;2023-11-21T12:03:07;95105.03;;;9.94;100.00
1832;BME280;1680;48.106;11.708;2023-11-21T12:05:35;95107.09;;;10.04;100.00
1832;BME280;1680;48.106;11.708;2023-11-21T12:08:05;95110.72;;;10.26;100.00
1832;BME280;1680;48.106;11.708;2023-11-21T12:10:34;95101.91;;;10.43;100.00
1832;BME280;1680;48.106;11.708;2023-11-21T12:13:05;95111.16;;;10.23;100.00
1832;BME280;1680;48.106;11.708;2023-11-21T12:15:33;95117.22;;;10.00;100.00
1832;BME280;1680;48.106;11.708;2023-11-21T12:18:00;95109.25;;;10.18;100.00
1832;BME280;1680;48.106;11.708;2023-11-21T12:20:28;95118.94;;;10.06;100.00
1832;BME280;1680;48.106;11.708;2023-11-21T12:22:57;95111.28;;;10.05;100.00
1832;BME280;1680;48.106;11.708;2023-11-21T12:25:26;95122.59;;;10.05;100.00
1832;BME280;1680;48.106;11.708;2023-11-21T12:27:55;95120.06;;;10.22;100.00
1832;BME280;1680;48.106;11.708;2023-11-21T12:30:26;95110.72;;;10.37;100.00
1832;BME280;1680;48.106;11.708;2023-11-21T12:32:56;95121.13;;;10.09;100.00
1832;BME280;1680;48.106;11.708;2023-11-21T12:35:27;95110.16;;;10.24;100.00
1832;BME280;1680;48.106;11.708;2023-11-21T12:37:55;95113.91;;;10.28;100.00
1832;BME280;1680;48.106;11.708;2023-11-21T12:40:23;95098.97;;;10.28;100.00
1832;BME280;1680;48.106;11.708;2023-11-21T12:42:52;95111.16;;;10.34;100.00
1832;BME280;1680;48.106;11.708;2023-11-21T12:45:20;95115.97;;;10.26;100.00
1832;BME280;1680;48.106;11.708;2023-11-21T12:47:50;95108.28;;;10.47;100.00
1832;BME280;1680;48.106;11.708;2023-11-21T12:50:21;95104.38;;;10.61;100.00
1832;BME280;1680;48.106;11.708;2023-11-21T12:52:52;95111.22;;;10.62;100.00
1832;BME280;1680;48.106;11.708;2023-11-21T12:55:21;95113.94;;;10.67;100.00
1832;BME280;1680;48.106;11.708;2023-11-21T12:57:49;95108.44;;;10.68;100.00
1832;BME280;1680;48.106;11.708;2023-11-21T13:00:18;95114.94;;;10.77;100.00
1832;BME280;1680;48.106;11.708;2023-11-21T13:02:57;95099.97;;;10.78;100.00
1832;BME280;1680;48.106;11.708;2023-11-21T13:05:28;95112.75;;;10.86;100.00
1832;BME280;1680;48.106;11.708;2023-11-21T13:07:57;95112.91;;;10.68;100.00
1832;BME280;1680;48.106;11.708;2023-11-21T13:10:28;95111.59;;;10.82;100.00
1832;BME280;1680;48.106;11.708;2023-11-21T13:12:56;95109.44;;;10.79;100.00
1832;BME280;1680;48.106;11.708;2023-11-21T13:15:25;95108.28;;;10.86;100.00